Time;durP1;ratioP1;P1;durP2;ratioP2;P2;SDS_P1;SDS_P2;PMS_P1;PMS_P2;Temp;Humidity;BMP_temperature;BMP_pressure;BME280_temperature;BME280_humidity;BME280_pressure;Samples;Min_cycle;Max_cycle;Signal;HPM_P1;HPM_P2
2022/02/03 00:04:50;;;;;;;;;7.00;4.00;;;;;11.43;99.19;102089.66;5045916;28;45486;-80
2022/02/03 00:07:21;;;;;;;;;4.25;3.00;;;;;11.44;99.64;102088.84;5075431;28;45854;-80
2022/02/03 00:10:28;;;;;;;;;4.50;3.00;;;;;11.40;99.04;102079.09;5066997;27;45276;-80
2022/02/03 00:26:24;;;;;;;;;4.75;3.00;;;;;11.37;100.00;102068.50;5075575;27;45764;-78
2022/02/03 00:28:51;;;;;;;;;4.25;4.25;;;;;11.39;100.00;102060.00;5074898;27;45325;-79
2022/02/03 00:31:43;;;;;;;;;4.75;4.75;;;;;11.41;100.00;102061.00;5075598;28;45418;-80
2022/02/03 00:34:20;;;;;;;;;4.50;3.00;;;;;11.44;100.00;102065.50;5057412;28;45303;-79
2022/02/03 00:50:29;;;;;;;;;3.75;3.75;;;;;11.51;100.00;102043.41;5079114;27;45241;-79
2022/02/03 00:52:56;;;;;;;;;4.00;4.00;;;;;11.51;100.00;102040.81;5078706;28;45358;-78
2022/02/03 00:55:23;;;;;;;;;4.00;4.00;;;;;11.49;100.00;102037.28;5079176;28;45450;-79
2022/02/03 00:57:54;;;;;;;;;5.75;5.50;;;;;11.49;100.00;102038.16;5078670;28;45345;-79
2022/02/03 01:00:21;;;;;;;;;6.75;4.00;;;;;11.44;100.00;102035.28;5078779;28;45843;-80
2022/02/03 01:03:16;;;;;;;;;4.75;4.25;;;;;11.41;100.00;102042.84;5078708;28;45228;-79
2022/02/03 01:05:46;;;;;;;;;5.50;5.00;;;;;11.40;100.00;102055.75;5057665;28;45510;-79
2022/02/03 01:08:21;;;;;;;;;5.75;5.50;;;;;11.33;100.00;102044.09;5060529;28;47696;-81
2022/02/03 01:11:00;;;;;;;;;5.75;5.00;;;;;11.33;100.00;102049.28;5078186;28;45465;-79
2022/02/03 01:16:04;;;;;;;;;5.50;3.75;;;;;11.22;100.00;102043.44;5078598;27;45227;-79
2022/02/03 01:19:04;;;;;;;;;4.00;4.00;;;;;11.18;100.00;102041.44;5078285;28;46376;-79
2022/02/03 01:48:37;;;;;;;;;5.50;4.00;;;;;11.07;100.00;102029.53;5077347;28;45404;-79
2022/02/03 01:53:58;;;;;;;;;4.50;4.50;;;;;11.03;100.00;102036.22;5060217;28;45426;-80
2022/02/03 01:56:33;;;;;;;;;5.00;5.00;;;;;11.02;100.00;102037.00;5077835;28;45389;-80
2022/02/03 01:59:02;;;;;;;;;8.50;7.00;;;;;11.02;100.00;102034.41;5059690;28;45524;-81
2022/02/03 02:01:31;;;;;;;;;5.25;4.25;;;;;11.06;100.00;102030.31;5076589;28;46304;-78
2022/02/03 02:04:20;;;;;;;;;5.25;4.50;;;;;11.08;100.00;102020.94;5076494;28;45972;-79
2022/02/03 02:07:04;;;;;;;;;4.50;4.50;;;;;11.08;100.00;102024.41;5077232;28;45335;-79
2022/02/03 02:13:13;;;;;;;;;7.00;5.75;;;;;11.05;100.00;102013.88;5037341;28;45758;-79
2022/02/03 02:16:08;;;;;;;;;8.25;7.00;;;;;11.05;100.00;102007.78;5076305;28;45351;-81
2022/02/03 02:37:56;;;;;;;;;4.50;4.25;;;;;11.19;100.00;101952.53;5076908;28;45489;-79
2022/02/03 02:43:16;;;;;;;;;5.75;5.00;;;;;11.28;100.00;101928.84;5067370;28;45420;-80
2022/02/03 02:45:53;;;;;;;;;4.00;4.00;;;;;11.28;100.00;101924.56;5076742;28;45494;-80
2022/02/03 02:48:46;;;;;;;;;3.50;3.25;;;;;11.29;100.00;101912.47;5076530;27;45884;-80
2022/02/03 02:51:21;;;;;;;;;4.00;4.00;;;;;11.27;100.00;101896.84;5077407;28;45456;-82
2022/02/03 02:56:52;;;;;;;;;6.00;4.00;;;;;11.32;100.00;101878.97;5077157;28;45330;-80
2022/02/03 03:00:04;;;;;;;;;2.00;2.00;;;;;11.35;100.00;101878.25;5076395;28;46064;-81
2022/02/03 03:30:35;;;;;;;;;4.50;3.00;;;;;11.26;100.00;101813.81;5076007;28;45715;-80
2022/02/03 03:36:14;;;;;;;;;4.25;4.25;;;;;11.30;100.00;101813.16;5033686;28;45769;-80
2022/02/03 03:38:44;;;;;;;;;6.00;4.00;;;;;11.31;99.90;101814.94;5068037;27;45512;-80
2022/02/03 03:41:17;;;;;;;;;3.00;2.75;;;;;11.32;99.03;101803.78;5075332;28;46331;-80
2022/02/03 03:43:51;;;;;;;;;3.00;3.00;;;;;11.27;98.75;101803.50;5075501;27;45300;-80
2022/02/03 03:46:26;;;;;;;;;5.75;4.00;;;;;11.19;98.51;101809.03;5076186;28;45454;-80
2022/02/03 03:49:22;;;;;;;;;4.75;4.00;;;;;11.14;99.58;101791.53;5075883;27;45499;-80
2022/02/03 03:51:56;;;;;;;;;5.00;4.00;;;;;11.16;99.78;101794.22;5075460;28;45423;-80
2022/02/03 03:54:39;;;;;;;;;3.50;3.50;;;;;11.11;99.27;101780.09;5075936;28;45283;-80
2022/02/03 04:32:46;;;;;;;;;3.75;3.25;;;;;10.72;98.60;101780.44;5079335;28;45405;-80
2022/02/03 04:41:13;;;;;;;;;5.50;4.00;;;;;10.61;100.00;101753.00;5078405;28;45504;-80
2022/02/03 04:53:38;;;;;;;;;3.00;2.25;;;;;10.62;100.00;101728.91;5079126;27;45237;-81
2022/02/03 04:59:16;;;;;;;;;6.00;4.00;;;;;10.56;100.00;101724.25;5079294;28;45324;-80
2022/02/03 05:05:11;;;;;;;;;3.00;3.00;;;;;10.53;100.00;101716.28;5078713;28;45398;-81
2022/02/03 05:07:59;;;;;;;;;6.50;4.75;;;;;10.55;100.00;101719.88;5078019;27;45426;-81
2022/02/03 05:17:03;;;;;;;;;6.00;5.00;;;;;10.74;100.00;101708.00;5078323;28;45368;-80
2022/02/03 05:23:20;;;;;;;;;5.50;4.25;;;;;10.78;100.00;101712.56;5078781;27;45502;-81
2022/02/03 05:32:10;;;;;;;;;5.50;5.00;;;;;10.58;100.00;101704.53;5077045;27;46098;-79
2022/02/03 05:46:54;;;;;;;;;3.00;3.00;;;;;10.38;100.00;101692.97;5078024;27;45375;-80
2022/02/03 06:14:03;;;;;;;;;6.75;5.25;;;;;10.17;100.00;101679.59;5076627;28;45839;-79
2022/02/03 06:16:38;;;;;;;;;7.00;5.50;;;;;10.16;100.00;101678.69;5074535;28;45188;-79
2022/02/03 06:21:54;;;;;;;;;6.00;4.75;;;;;10.14;100.00;101659.59;5077146;27;45290;-78
2022/02/03 06:29:34;;;;;;;;;6.75;6.00;;;;;10.04;100.00;101644.31;5079994;27;45337;-80
2022/02/03 06:31:59;;;;;;;;;6.25;5.75;;;;;10.06;100.00;101634.97;5085233;27;46896;-79
2022/02/03 06:34:25;;;;;;;;;6.25;5.00;;;;;10.05;100.00;101631.47;5076694;28;45230;-79
2022/02/03 06:36:53;;;;;;;;;10.50;8.25;;;;;10.08;100.00;101635.97;5076204;27;45542;-79
2022/02/03 06:39:27;;;;;;;;;9.50;7.00;;;;;10.11;100.00;101623.19;5076558;27;45901;-79
2022/02/03 06:41:57;;;;;;;;;10.75;8.50;;;;;10.14;100.00;101625.06;5077398;27;46303;-78
2022/02/03 06:44:31;;;;;;;;;7.00;7.00;;;;;10.13;100.00;101625.88;5075814;28;45366;-79
2022/02/03 06:47:02;;;;;;;;;7.00;7.00;;;;;10.13;100.00;101619.00;5075813;28;45430;-80
2022/02/03 06:52:15;;;;;;;;;6.75;6.00;;;;;10.19;100.00;101626.22;5072882;28;45481;-80
2022/02/03 06:57:17;;;;;;;;;7.75;7.75;;;;;10.09;100.00;101622.22;5075440;28;45504;-79
2022/02/03 06:59:51;;;;;;;;;7.75;5.75;;;;;10.10;100.00;101630.84;5077070;27;45319;-77
2022/02/03 07:02:18;;;;;;;;;11.25;8.25;;;;;10.12;100.00;101642.19;5075211;27;46371;-76
2022/02/03 07:04:45;;;;;;;;;12.00;10.00;;;;;10.11;100.00;101637.81;5076150;27;45362;-74
2022/02/03 07:07:16;;;;;;;;;11.25;11.25;;;;;10.11;100.00;101630.06;5078065;27;45347;-77
2022/02/03 07:09:45;;;;;;;;;12.00;11.75;;;;;10.14;100.00;101627.66;5075920;28;45478;-80
2022/02/03 07:12:11;;;;;;;;;11.00;9.25;;;;;10.14;100.00;101620.78;5076365;28;45251;-80
2022/02/03 07:14:37;;;;;;;;;8.50;7.75;;;;;10.17;100.00;101626.16;5076017;27;45863;-80
2022/02/03 07:17:04;;;;;;;;;11.25;8.75;;;;;10.19;100.00;101627.13;5074960;28;45493;-83
2022/02/03 07:19:35;;;;;;;;;9.00;9.00;;;;;10.21;100.00;101637.56;5055792;28;45278;-78
2022/02/03 07:22:00;;;;;;;;;11.25;10.25;;;;;10.16;100.00;101631.22;5070001;28;46741;-83
2022/02/03 07:24:26;;;;;;;;;10.50;9.75;;;;;10.13;100.00;101629.34;5059690;28;45488;-80
2022/02/03 07:26:52;;;;;;;;;11.00;8.00;;;;;10.07;100.00;101637.63;5067919;27;45303;-80
2022/02/03 07:29:17;;;;;;;;;9.00;9.00;;;;;10.02;100.00;101649.41;5076332;28;45446;-79
2022/02/03 07:31:43;;;;;;;;;11.00;11.00;;;;;10.00;100.00;101655.28;5076057;28;45949;-79
2022/02/03 07:34:11;;;;;;;;;11.75;10.75;;;;;10.01;100.00;101636.38;5076365;28;45390;-79
2022/02/03 07:36:38;;;;;;;;;12.50;10.25;;;;;9.96;100.00;101630.03;5076320;28;45260;-79
2022/02/03 07:39:06;;;;;;;;;8.75;7.25;;;;;9.97;100.00;101653.41;5076140;28;45367;-79
2022/02/03 07:41:31;;;;;;;;;11.75;8.50;;;;;9.98;100.00;101646.56;5074746;27;45280;-79
2022/02/03 07:43:57;;;;;;;;;12.00;10.00;;;;;9.97;100.00;101635.28;5074278;28;45453;-77
2022/02/03 07:46:23;;;;;;;;;11.75;11.75;;;;;9.96;100.00;101635.22;5057591;28;45514;-81
2022/02/03 07:48:51;;;;;;;;;15.00;11.25;;;;;9.97;100.00;101631.81;5075653;27;45369;-84
2022/02/03 07:51:17;;;;;;;;;13.25;12.50;;;;;9.97;100.00;101621.47;5074260;28;45897;-80
2022/02/03 07:53:43;;;;;;;;;11.75;11.00;;;;;9.97;100.00;101631.81;5074708;28;45436;-79
2022/02/03 07:56:08;;;;;;;;;12.00;10.50;;;;;9.95;100.00;101638.59;5076655;27;45452;-82
2022/02/03 07:58:34;;;;;;;;;18.25;16.00;;;;;9.86;100.00;101636.34;5074834;27;45339;-81
2022/02/03 08:01:00;;;;;;;;;16.25;12.00;;;;;9.82;100.00;101626.63;5075677;28;46448;-80
2022/02/03 08:03:26;;;;;;;;;15.00;15.00;;;;;9.85;100.00;101634.53;5075572;28;45246;-80
2022/02/03 08:05:58;;;;;;;;;16.00;14.75;;;;;9.89;100.00;101637.41;5057442;28;45455;-80
2022/02/03 08:08:34;;;;;;;;;13.50;13.00;;;;;9.90;100.00;101635.72;5074245;28;45516;-81
2022/02/03 08:11:04;;;;;;;;;14.75;12.25;;;;;9.86;100.00;101624.31;5076917;28;46158;-80
2022/02/03 08:13:37;;;;;;;;;12.00;11.25;;;;;9.86;100.00;101629.47;5073099;28;46022;-79
2022/02/03 08:16:19;;;;;;;;;13.50;12.00;;;;;9.85;100.00;101629.38;5075655;28;45430;-80
2022/02/03 08:18:49;;;;;;;;;15.50;15.50;;;;;9.86;100.00;101649.25;5069454;27;46033;-80
2022/02/03 08:21:16;;;;;;;;;17.50;14.00;;;;;9.85;100.00;101647.47;5067634;28;45979;-81
2022/02/03 08:24:15;;;;;;;;;12.75;12.75;;;;;9.83;100.00;101629.28;5076025;27;45378;-81
2022/02/03 08:26:47;;;;;;;;;13.75;12.00;;;;;9.89;100.00;101639.13;5074164;28;45485;-80
2022/02/03 08:31:52;;;;;;;;;14.75;13.25;;;;;9.94;100.00;101636.81;5075136;28;45689;-80
2022/02/03 08:34:32;;;;;;;;;13.50;13.50;;;;;9.91;100.00;101625.47;5071449;28;45485;-79
2022/02/03 08:37:00;;;;;;;;;13.50;13.00;;;;;9.84;100.00;101622.41;5074462;28;45508;-79
2022/02/03 08:39:26;;;;;;;;;14.50;13.00;;;;;9.81;100.00;101623.13;5074331;28;45446;-78
2022/02/03 08:41:52;;;;;;;;;19.75;15.00;;;;;9.82;100.00;101617.16;5073881;28;46145;-79
2022/02/03 08:44:17;;;;;;;;;14.50;12.50;;;;;9.83;100.00;101618.03;5074123;28;45496;-79
2022/02/03 08:46:43;;;;;;;;;14.50;13.50;;;;;9.82;100.00;101605.94;5075324;27;45398;-78
2022/02/03 08:49:10;;;;;;;;;12.50;12.50;;;;;9.79;100.00;101621.25;5074779;28;45694;-80
2022/02/03 08:51:37;;;;;;;;;12.25;11.00;;;;;9.80;100.00;101604.94;5071932;28;45448;-81
2022/02/03 08:54:09;;;;;;;;;15.25;13.00;;;;;9.84;100.00;101596.53;5074329;28;45301;-79
2022/02/03 08:56:45;;;;;;;;;12.50;12.00;;;;;9.86;100.00;101597.53;5077498;27;45449;-80
2022/02/03 08:59:48;;;;;;;;;15.00;13.00;;;;;9.84;100.00;101596.53;5060361;28;45460;-80
2022/02/03 09:57:30;;;;;;;;;19.00;13.50;;;;;9.95;100.00;101567.03;5078265;27;45378;-77
2022/02/03 10:00:16;;;;;;;;;17.75;17.00;;;;;9.99;100.00;101565.56;5066500;28;46047;-77
2022/02/03 10:03:00;;;;;;;;;19.50;13.25;;;;;10.00;100.00;101552.69;5075903;28;45431;-79
2022/02/03 10:05:43;;;;;;;;;14.50;13.25;;;;;10.03;100.00;101558.06;5061557;28;45564;-77
2022/02/03 10:08:19;;;;;;;;;15.75;13.50;;;;;10.05;100.00;101553.84;5073307;28;45869;-77
2022/02/03 10:10:49;;;;;;;;;19.50;18.50;;;;;10.07;100.00;101557.41;5070767;28;46025;-77
2022/02/03 10:13:21;;;;;;;;;17.75;17.75;;;;;10.12;100.00;101562.00;5063540;28;45411;-77
2022/02/03 10:16:04;;;;;;;;;18.25;14.75;;;;;10.11;100.00;101566.25;5076242;28;45578;-77
2022/02/03 10:18:31;;;;;;;;;20.75;19.50;;;;;10.14;100.00;101557.81;5076347;27;45351;-78
2022/02/03 10:20:59;;;;;;;;;16.00;13.25;;;;;10.16;100.00;101584.63;5057677;28;45694;-77
2022/02/03 10:23:27;;;;;;;;;18.25;16.25;;;;;10.18;100.00;101577.88;5057983;28;45359;-79
2022/02/03 10:26:03;;;;;;;;;18.00;16.50;;;;;10.12;100.00;101560.28;5054423;28;45432;-79
2022/02/03 10:28:29;;;;;;;;;18.75;15.50;;;;;10.11;100.00;101570.56;5073841;27;45716;-77
2022/02/03 10:31:02;;;;;;;;;22.25;17.75;;;;;10.08;100.00;101555.75;5057337;28;45340;-83
2022/02/03 10:33:40;;;;;;;;;19.75;18.25;;;;;10.11;100.00;101574.00;5076892;28;45246;-77
2022/02/03 10:36:24;;;;;;;;;20.50;18.00;;;;;10.14;100.00;101586.25;5076894;28;45685;-80
2022/02/03 10:44:26;;;;;;;;;25.75;22.00;;;;;10.04;100.00;101587.41;5076653;27;45635;-78
2022/02/03 10:47:23;;;;;;;;;21.50;18.75;;;;;10.02;100.00;101601.94;5076639;27;46111;-78
2022/02/03 10:52:48;;;;;;;;;20.00;20.00;;;;;10.00;100.00;101588.91;5076439;28;45418;-79
2022/02/03 11:08:26;;;;;;;;;19.25;17.50;;;;;9.88;100.00;101532.16;5076926;28;45573;-79
2022/02/03 11:10:59;;;;;;;;;15.00;15.00;;;;;9.95;100.00;101525.66;5076278;28;45533;-79
2022/02/03 11:13:34;;;;;;;;;19.00;14.00;;;;;10.00;100.00;101531.09;5075965;27;45890;-80
2022/02/03 11:16:03;;;;;;;;;17.00;13.00;;;;;10.01;100.00;101528.63;5079238;27;45339;-80
2022/02/03 11:18:30;;;;;;;;;15.75;15.25;;;;;9.99;100.00;101522.47;5076915;28;45490;-80
2022/02/03 11:20:57;;;;;;;;;18.50;15.75;;;;;10.01;100.00;101527.72;5076378;27;45498;-80
2022/02/03 11:26:12;;;;;;;;;18.75;15.25;;;;;10.05;100.00;101519.34;5076193;28;45459;-80
2022/02/03 11:29:12;;;;;;;;;19.00;18.00;;;;;9.97;100.00;101505.94;5076487;27;45333;-80
2022/02/03 12:05:11;;;;;;;;;22.00;19.00;;;;;10.01;100.00;101483.72;5069077;28;45960;-80
2022/02/03 12:10:15;;;;;;;;;15.00;14.00;;;;;10.01;100.00;101484.63;5072776;27;45494;-86
2022/02/03 12:11:10;;;;;;;;;23.00;17.50;;;;;10.06;100.00;101484.91;5063669;28;45572;-82
2022/02/03 12:16:20;;;;;;;;;15.50;14.75;;;;;10.01;100.00;101471.72;5075354;28;45354;-81
2022/02/03 12:21:40;;;;;;;;;25.25;22.00;;;;;10.01;100.00;101466.53;5075623;27;45366;-82
2022/02/03 12:24:25;;;;;;;;;24.75;19.25;;;;;10.03;100.00;101471.78;5075529;27;45339;-80
2022/02/03 12:29:49;;;;;;;;;21.00;16.00;;;;;10.01;100.00;101451.00;5075253;27;45433;-82
2022/02/03 12:40:44;;;;;;;;;21.75;20.00;;;;;9.97;100.00;101448.16;5076826;28;45657;-81
2022/02/03 12:43:27;;;;;;;;;18.00;16.25;;;;;9.94;100.00;101450.56;5077093;27;45462;-82
2022/02/03 12:45:53;;;;;;;;;21.00;16.50;;;;;9.93;100.00;101447.09;5079481;28;45260;-81
2022/02/03 12:48:27;;;;;;;;;18.50;18.00;;;;;9.92;100.00;101455.66;5078772;27;45402;-81
2022/02/03 12:50:55;;;;;;;;;19.50;15.00;;;;;9.89;100.00;101438.25;5079131;27;45893;-81
2022/02/03 12:53:22;;;;;;;;;23.00;20.00;;;;;9.89;100.00;101443.41;5078762;28;45394;-81
2022/02/03 12:55:51;;;;;;;;;22.00;19.50;;;;;9.90;100.00;101434.84;5079462;28;45602;-81
2022/02/03 12:58:22;;;;;;;;;20.50;19.00;;;;;9.92;100.00;101434.97;5078726;27;46532;-81
2022/02/03 13:00:58;;;;;;;;;23.00;17.25;;;;;9.93;100.00;101433.25;5079261;28;45986;-81
2022/02/03 13:03:36;;;;;;;;;26.25;21.75;;;;;9.88;100.00;101441.63;5078759;27;45792;-80
2022/02/03 13:06:06;;;;;;;;;21.25;16.00;;;;;9.79;100.00;101440.22;5059673;28;45372;-80
2022/02/03 13:08:53;;;;;;;;;14.75;12.75;;;;;9.78;100.00;101439.31;5078396;27;45387;-81
2022/02/03 13:11:22;;;;;;;;;21.00;18.25;;;;;9.78;100.00;101433.25;5078307;27;46031;-80
2022/02/03 13:14:24;;;;;;;;;21.25;20.25;;;;;9.80;100.00;101434.25;5078835;28;45487;-81
2022/02/03 13:17:16;;;;;;;;;18.25;18.00;;;;;9.79;100.00;101427.28;5076322;27;45847;-80
2022/02/03 13:19:54;;;;;;;;;19.50;19.50;;;;;9.84;100.00;101429.34;5077439;28;46303;-76
2022/02/03 13:22:58;;;;;;;;;22.25;17.00;;;;;9.86;100.00;101437.19;5077949;27;45852;-78
2022/02/03 13:25:19;;;;;;;;;22.50;19.75;;;;;9.78;100.00;101423.81;5079532;27;45199;-75
2022/02/03 13:30:42;;;;;;;;;21.75;17.00;;;;;9.72;100.00;101419.16;5076670;28;45931;-78
2022/02/03 13:33:21;;;;;;;;;22.00;17.50;;;;;9.73;100.00;101412.31;5076975;27;45989;-79
2022/02/03 13:36:10;;;;;;;;;25.00;20.75;;;;;9.81;100.00;101415.34;5078182;28;45446;-83
2022/02/03 13:38:56;;;;;;;;;29.00;21.25;;;;;9.84;100.00;101416.41;5079015;27;45339;-81
2022/02/03 13:41:26;;;;;;;;;16.00;14.50;;;;;9.87;100.00;101413.09;5076734;27;45529;-81
2022/02/03 13:43:52;;;;;;;;;27.00;25.00;;;;;9.88;100.00;101413.19;5077151;27;45703;-77
2022/02/03 13:46:29;;;;;;;;;26.75;19.75;;;;;9.88;100.00;101415.75;5058276;28;45540;-78
2022/02/03 13:48:55;;;;;;;;;20.50;18.25;;;;;9.93;100.00;101417.72;5055140;28;45461;-80
2022/02/03 13:51:30;;;;;;;;;26.50;19.75;;;;;9.90;100.00;101401.22;5075522;27;46911;-80
2022/02/03 13:54:05;;;;;;;;;28.75;21.50;;;;;9.96;100.00;101407.56;5059292;28;45422;-80
2022/02/03 14:21:25;;;;;;;;;23.50;20.75;;;;;10.30;100.00;101368.06;5076353;27;45360;-80
2022/02/03 14:29:11;;;;;;;;;20.75;20.00;;;;;10.47;100.00;101350.91;5076605;27;45809;-79
2022/02/03 14:31:38;;;;;;;;;19.00;17.00;;;;;10.55;100.00;101356.47;5076817;28;45174;-81
2022/02/03 14:34:09;;;;;;;;;16.00;16.00;;;;;10.63;100.00;101352.59;5075928;27;46353;-80
2022/02/03 14:36:35;;;;;;;;;20.75;19.50;;;;;10.67;100.00;101345.09;5062707;28;45860;-81
2022/02/03 14:39:15;;;;;;;;;28.50;24.75;;;;;10.78;100.00;101349.94;5077587;27;45344;-81
2022/02/03 14:41:48;;;;;;;;;24.00;21.00;;;;;10.83;100.00;101354.56;5076349;27;45265;-79
2022/02/03 14:44:16;;;;;;;;;24.00;18.00;;;;;10.77;100.00;101338.66;5073337;28;45543;-80
2022/02/03 14:46:45;;;;;;;;;23.00;20.50;;;;;10.76;100.00;101338.59;5076599;27;45426;-80
2022/02/03 14:49:11;;;;;;;;;24.75;18.75;;;;;10.83;100.00;101330.31;5073874;27;45409;-79
2022/02/03 14:51:55;;;;;;;;;23.00;20.00;;;;;10.84;100.00;101333.03;5075490;27;45699;-80
2022/02/03 14:59:37;;;;;;;;;19.75;16.75;;;;;10.75;100.00;101335.09;5076890;27;45495;-80
2022/02/03 15:02:07;;;;;;;;;24.25;19.75;;;;;10.73;100.00;101333.25;5057996;28;45553;-80
2022/02/03 15:04:40;;;;;;;;;19.25;19.25;;;;;10.76;100.00;101341.19;5077150;27;46136;-81
2022/02/03 15:07:10;;;;;;;;;24.50;20.00;;;;;10.82;100.00;101344.09;5058395;27;45559;-83
2022/02/03 15:10:01;;;;;;;;;17.50;15.00;;;;;10.77;100.00;101336.06;5064148;28;45429;-84
2022/02/03 15:12:42;;;;;;;;;19.25;16.50;;;;;10.79;100.00;101336.19;5061295;28;46086;-82
2022/02/03 15:15:09;;;;;;;;;23.75;21.00;;;;;10.85;100.00;101352.03;5081403;28;45858;-83
2022/02/03 15:17:36;;;;;;;;;19.00;16.00;;;;;10.73;100.00;101328.97;5076178;27;45969;-79
2022/02/03 15:20:08;;;;;;;;;20.00;15.00;;;;;10.80;100.00;101341.44;5076365;27;45355;-83
2022/02/03 15:22:34;;;;;;;;;26.75;19.00;;;;;10.87;100.00;101347.81;5056835;28;45565;-81
2022/02/03 15:25:02;;;;;;;;;19.00;16.75;;;;;10.83;100.00;101333.81;5076534;27;45344;-82
2022/02/03 15:27:40;;;;;;;;;17.75;15.25;;;;;10.77;100.00;101325.72;5057724;28;45541;-84
2022/02/03 15:30:09;;;;;;;;;23.50;17.25;;;;;10.90;100.00;101347.09;5076934;27;45367;-84
2022/02/03 15:32:40;;;;;;;;;21.50;14.75;;;;;10.79;100.00;101331.00;5075256;27;45245;-84
2022/02/03 15:35:14;;;;;;;;;20.25;15.75;;;;;10.79;100.00;101331.88;5068293;28;47932;-85
2022/02/03 15:37:44;;;;;;;;;24.00;17.75;;;;;10.83;100.00;101327.72;5059202;28;45883;-84
2022/02/03 15:40:22;;;;;;;;;22.25;21.25;;;;;10.83;100.00;101343.28;5055429;28;45441;-84
2022/02/03 15:43:04;;;;;;;;;22.00;15.75;;;;;10.86;100.00;101345.13;5057159;27;45604;-86
2022/02/03 15:45:36;;;;;;;;;17.50;16.00;;;;;10.75;100.00;101321.28;5054805;28;45558;-85
2022/02/03 15:48:13;;;;;;;;;19.75;16.75;;;;;10.80;100.00;101344.03;5064832;28;45828;-85
2022/02/03 16:01:53;;;;;;;;;24.00;20.25;;;;;10.70;100.00;101328.81;5076228;27;45454;-86
2022/02/03 16:18:01;;;;;;;;;18.75;15.00;;;;;10.55;100.00;101315.94;5080168;27;45775;-85
2022/02/03 16:20:50;;;;;;;;;18.00;16.50;;;;;10.70;100.00;101331.41;5077026;28;45797;-84
2022/02/03 16:55:09;;;;;;;;;;;;;;;;;;;;;
2022/02/03 16:58:21;;;;;;;;;23.00;17.00;;;;;10.57;100.00;101347.09;5080282;27;67602;-84
2022/02/03 17:00:53;;;;;;;;;14.50;14.50;;;;;10.54;100.00;101340.06;4990396;28;45624;-83
2022/02/03 17:03:29;;;;;;;;;17.00;15.00;;;;;10.48;100.00;101331.94;4996490;28;47152;-84
2022/02/03 17:06:06;;;;;;;;;21.25;17.00;;;;;10.50;100.00;101335.50;5033943;28;45872;-86
2022/02/03 17:08:42;;;;;;;;;20.75;16.75;;;;;10.60;100.00;101342.09;5079574;27;45426;-83
2022/02/03 17:11:07;;;;;;;;;19.50;15.00;;;;;10.64;100.00;101342.31;5078251;28;45441;-80
2022/02/03 17:13:33;;;;;;;;;16.50;15.50;;;;;10.71;100.00;101353.00;5059827;28;47589;-77
2022/02/03 17:16:00;;;;;;;;;18.00;17.00;;;;;10.74;100.00;101354.06;5058403;28;45421;-83
2022/02/03 17:18:26;;;;;;;;;19.00;17.00;;;;;10.74;100.00;101350.56;5075694;27;45457;-81
2022/02/03 17:20:51;;;;;;;;;16.25;14.75;;;;;10.72;100.00;101355.69;5058344;28;45557;-80
2022/02/03 17:23:21;;;;;;;;;15.25;13.00;;;;;10.72;100.00;101357.38;5059588;27;47418;-81
2022/02/03 17:25:53;;;;;;;;;15.75;15.00;;;;;10.78;100.00;101360.28;5078867;27;45410;-81
2022/02/03 17:28:36;;;;;;;;;21.25;18.00;;;;;10.78;100.00;101347.34;5110901;27;45365;-81
2022/02/03 17:31:06;;;;;;;;;13.00;12.75;;;;;10.80;100.00;101356.97;5098272;27;45255;-80
2022/02/03 17:53:17;;;;;;;;;17.25;17.00;;;;;10.77;100.00;101355.91;5077514;27;45387;-81
2022/02/03 18:32:45;;;;;;;;;15.25;12.00;;;;;10.56;100.00;101358.25;5076909;27;45695;-82
2022/02/03 18:46:32;;;;;;;;;21.25;19.25;;;;;10.63;100.00;101365.56;5076302;27;45495;-78
2022/02/03 18:49:45;;;;;;;;;27.00;20.75;;;;;10.65;100.00;101372.59;5076375;28;45328;-81
2022/02/03 18:51:38;;;;;;;;;22.50;22.50;;;;;10.63;100.00;101366.44;5078030;27;45410;-84
2022/02/03 18:59:28;;;;;;;;;23.25;21.00;;;;;10.64;100.00;101375.97;5059043;28;45744;-83
2022/02/03 19:10:19;;;;;;;;;17.50;17.25;;;;;10.52;100.00;101376.22;5079106;28;45416;-81
2022/02/03 19:23:44;;;;;;;;;22.75;19.00;;;;;10.38;100.00;101380.63;5059125;28;45866;-85
2022/02/03 20:11:13;;;;;;;;;21.25;17.50;;;;;10.26;100.00;101390.28;5076210;27;45596;-85
2022/02/03 20:13:38;;;;;;;;;21.75;18.50;;;;;10.25;100.00;101391.09;5076860;27;45378;-84
2022/02/03 20:16:06;;;;;;;;;23.00;17.00;;;;;10.31;100.00;101387.97;5076328;28;45282;-81
2022/02/03 20:18:32;;;;;;;;;16.00;13.00;;;;;10.32;100.00;101392.31;5076510;28;45244;-85
2022/02/03 20:20:58;;;;;;;;;21.00;19.00;;;;;10.34;100.00;101401.06;5058338;28;45189;-84
2022/02/03 20:23:24;;;;;;;;;15.25;15.25;;;;;10.30;100.00;101396.53;5077443;27;45531;-83
2022/02/03 20:25:57;;;;;;;;;19.00;17.75;;;;;10.30;100.00;101396.53;5086330;28;45908;-84
2022/02/03 20:28:27;;;;;;;;;25.00;21.75;;;;;10.27;100.00;101393.75;5080439;28;45374;-82
2022/02/03 20:30:53;;;;;;;;;29.75;26.00;;;;;10.29;100.00;101393.03;5077962;28;45323;-81
2022/02/03 20:33:19;;;;;;;;;20.50;18.75;;;;;10.29;100.00;101399.94;5079211;28;46522;-85
2022/02/03 20:35:45;;;;;;;;;20.50;18.25;;;;;10.24;100.00;101389.31;5059510;28;45891;-86
2022/02/03 20:38:14;;;;;;;;;19.00;13.00;;;;;10.24;100.00;101394.50;5077608;27;45348;-86
2022/02/03 20:40:41;;;;;;;;;20.00;19.25;;;;;10.23;100.00;101384.94;5059304;28;45681;-85
2022/02/03 20:43:06;;;;;;;;;18.00;16.25;;;;;10.25;100.00;101396.28;5076863;27;46313;-86
2022/02/03 20:45:32;;;;;;;;;14.75;14.75;;;;;10.26;100.00;101395.44;5076874;27;45356;-84
2022/02/03 20:47:58;;;;;;;;;20.75;15.00;;;;;10.23;100.00;101395.31;5058635;28;45354;-87
2022/02/03 20:50:23;;;;;;;;;18.25;15.50;;;;;10.23;100.00;101403.94;5058292;28;45764;-86
2022/02/03 20:52:49;;;;;;;;;21.75;15.00;;;;;10.25;100.00;101400.56;5060770;28;47754;-85
2022/02/03 20:55:19;;;;;;;;;19.50;18.00;;;;;10.25;100.00;101403.13;5064820;28;45799;-86
2022/02/03 20:57:44;;;;;;;;;25.00;19.00;;;;;10.25;100.00;101401.47;5080722;28;45393;-85
2022/02/03 21:05:17;;;;;;;;;16.50;15.00;;;;;10.23;100.00;101391.00;5079358;27;45801;-83
2022/02/03 21:07:45;;;;;;;;;15.00;15.00;;;;;10.29;100.00;101397.34;5079344;27;45310;-86
2022/02/03 21:10:19;;;;;;;;;17.75;13.25;;;;;10.29;100.00;101400.81;5079904;27;45352;-85
2022/02/03 21:12:46;;;;;;;;;15.00;12.75;;;;;10.28;100.00;101396.44;5080097;28;46510;-83
2022/02/03 21:15:21;;;;;;;;;16.25;14.50;;;;;10.27;100.00;101392.06;5079698;27;45772;-88
2022/02/03 21:17:49;;;;;;;;;14.75;12.75;;;;;10.29;100.00;101395.63;5078567;27;45434;-87
2022/02/03 21:20:17;;;;;;;;;18.00;15.00;;;;;10.30;100.00;101401.72;5079684;27;45397;-85
2022/02/03 21:22:44;;;;;;;;;14.00;13.00;;;;;10.26;100.00;101389.41;5061685;28;47144;-87
2022/02/03 21:25:22;;;;;;;;;20.00;16.25;;;;;10.32;100.00;101408.75;5080056;28;45894;-87
2022/02/03 21:27:50;;;;;;;;;12.75;12.75;;;;;10.32;100.00;101392.31;5080710;28;45995;-87
2022/02/03 21:30:18;;;;;;;;;18.00;15.00;;;;;10.29;100.00;101394.75;5080677;28;45644;-86
2022/02/03 21:32:44;;;;;;;;;11.75;11.50;;;;;10.29;100.00;101395.63;5080132;27;45447;-87
2022/02/03 21:35:10;;;;;;;;;17.00;16.25;;;;;10.26;100.00;101398.03;5061252;28;45397;-86
2022/02/03 21:37:38;;;;;;;;;15.00;13.75;;;;;10.21;100.00;101399.50;5061743;28;45453;-86
2022/02/03 21:40:08;;;;;;;;;15.00;13.25;;;;;10.19;100.00;101402.00;5061418;28;45348;-87
2022/02/03 21:42:35;;;;;;;;;16.25;13.50;;;;;10.26;100.00;101413.56;5045894;28;45628;-82
2022/02/03 21:45:07;;;;;;;;;14.25;12.25;;;;;10.22;100.00;101407.31;5061240;28;45819;-83
2022/02/03 21:47:34;;;;;;;;;16.00;14.50;;;;;10.25;100.00;101413.50;5061300;28;45391;-83
2022/02/03 21:50:00;;;;;;;;;16.50;12.25;;;;;10.29;100.00;101416.31;5081456;27;45384;-85
2022/02/03 21:52:35;;;;;;;;;15.00;13.50;;;;;10.26;100.00;101399.75;5080323;27;45816;-88